createdAt,value
2023-04-02T00:01:36.900Z,2
2023-04-02T00:04:37.414Z,3.1199999999999997
2023-04-02T00:07:39.949Z,2.66
2023-04-02T00:10:37.479Z,2.54
2023-04-02T00:13:37.047Z,2.2600000000000002
2023-04-02T00:16:34.630Z,2.2800000000000002
2023-04-02T00:19:36.175Z,2.2
2023-04-02T00:22:33.741Z,2.5
2023-04-02T00:25:35.428Z,2.8400000000000003
2023-04-02T00:28:30.839Z,2.7400000000000007
2023-04-02T00:31:27.492Z,2.2199999999999998
2023-04-02T00:34:27.973Z,2.4799999999999995
2023-04-02T00:37:27.527Z,2.04
2023-04-02T00:40:26.052Z,2.5
2023-04-02T00:43:24.594Z,1.8800000000000001
2023-04-02T00:46:30.191Z,2.52
2023-04-02T00:49:34.625Z,2.62
2023-04-02T00:52:35.214Z,3.72
2023-04-02T00:55:37.224Z,3.6400000000000006
2023-04-02T00:58:40.944Z,3.0199999999999996
2023-04-02T01:01:44.870Z,3.94
2023-04-02T01:04:53.892Z,4.18
2023-04-02T01:07:56.925Z,2.94
2023-04-02T01:11:02.438Z,2.88
2023-04-02T01:14:04.983Z,3.28
2023-04-02T01:17:18.566Z,2.9200000000000004
2023-04-02T01:20:38.983Z,3.8200000000000003
2023-04-02T01:23:42.539Z,1.7599999999999998
2023-04-02T01:26:48.084Z,2.44
2023-04-02T01:29:48.619Z,1.94
2023-04-02T01:32:47.258Z,2.2399999999999998
2023-04-02T01:35:46.777Z,2.12
2023-04-02T01:38:47.240Z,2.8600000000000003
2023-04-02T01:41:47.876Z,3.2600000000000002
2023-04-02T01:44:47.386Z,3.0200000000000005
2023-04-02T01:47:44.951Z,2.96
2023-04-02T01:50:49.506Z,2.2399999999999998
2023-04-02T01:53:47.066Z,3.96
2023-04-02T01:56:43.604Z,1.8199999999999998
2023-04-02T01:59:44.135Z,2.2
2023-04-02T02:02:46.804Z,1.9600000000000002
2023-04-02T02:05:46.452Z,1.3
2023-04-02T02:08:50.777Z,2.96
2023-04-02T02:11:49.337Z,2.46
2023-04-02T02:14:47.876Z,2.32
2023-04-02T02:17:49.552Z,3.3
2023-04-02T02:20:47.009Z,3.3
2023-04-02T02:23:43.545Z,5.04
2023-04-02T02:26:40.114Z,3.04
2023-04-02T02:29:44.646Z,2.9400000000000004
2023-04-02T02:32:45.226Z,3.2800000000000002
2023-04-02T02:35:52.794Z,2
2023-04-02T02:39:03.275Z,2.7800000000000002
2023-04-02T02:42:08.798Z,2.2800000000000002
2023-04-02T02:45:11.287Z,3.2400000000000007
2023-04-02T02:48:11.886Z,2.3200000000000003
2023-04-02T02:51:14.520Z,3.06
2023-04-02T02:54:18.945Z,3.3200000000000003
2023-04-02T02:57:19.560Z,2.34
2023-04-02T03:00:22.380Z,2.7600000000000002
2023-04-02T03:03:21.729Z,4.6
2023-04-02T03:06:22.119Z,9.98
2023-04-02T03:09:26.665Z,6.159999999999999
2023-04-02T03:12:32.217Z,3.56
2023-04-02T03:15:36.102Z,3.5799999999999996
2023-04-02T03:18:38.321Z,4
2023-04-02T03:21:42.854Z,2.56
2023-04-02T03:24:49.361Z,2.28
2023-04-02T03:27:49.943Z,1.9
2023-04-02T03:30:58.457Z,1.78
2023-04-02T03:33:58.991Z,1.94
2023-04-02T03:36:59.576Z,2.5
2023-04-02T03:40:02.114Z,3.8
2023-04-02T03:43:06.640Z,1.48
2023-04-02T03:46:14.226Z,5.1
2023-04-02T03:49:17.722Z,10.040000000000001
2023-04-02T03:52:23.241Z,8.9
2023-04-02T03:55:21.820Z,4.58
2023-04-02T03:58:25.364Z,2.34
2023-04-02T04:01:26.879Z,1.08
2023-04-02T04:04:27.500Z,1.6599999999999997
2023-04-02T04:07:29.985Z,2.04
2023-04-02T04:10:27.562Z,2.04
2023-04-02T04:13:29.512Z,4.98
2023-04-02T04:16:30.717Z,6.76
2023-04-02T04:19:39.138Z,8.260000000000002
2023-04-02T04:22:41.714Z,11.68
2023-04-02T04:25:40.309Z,11.98
2023-04-02T04:28:43.798Z,9.66
2023-04-02T04:31:54.382Z,11.78
2023-04-02T04:34:55.919Z,8.120000000000001
2023-04-02T04:37:59.417Z,2.34
2023-04-02T04:40:59.964Z,1.48
2023-04-02T04:44:06.501Z,1.9
2023-04-02T04:47:08.144Z,1.6400000000000001
2023-04-02T04:50:08.554Z,2.88
2023-04-02T04:53:07.149Z,2.1799999999999997
2023-04-02T04:56:18.675Z,3.2
2023-04-02T04:59:15.202Z,5.5200000000000005
2023-04-02T05:02:17.764Z,4.14
2023-04-02T05:05:18.448Z,2.44
2023-04-02T05:08:20.859Z,2.64
2023-04-02T05:11:23.372Z,3.6
2023-04-02T05:14:26.951Z,1.8199999999999998
2023-04-02T05:17:28.540Z,1.46
2023-04-02T05:20:32.039Z,3.1800000000000006
2023-04-02T05:23:34.582Z,3.8599999999999994
2023-04-02T05:26:39.064Z,7.359999999999999
2023-04-02T05:29:42.644Z,7.94
2023-04-02T05:32:44.273Z,10.06
2023-04-02T05:35:49.794Z,7.659999999999999
2023-04-02T05:38:52.282Z,18.32
2023-04-02T05:42:00.167Z,13.6
2023-04-02T05:45:04.368Z,9.64
2023-04-02T05:48:03.938Z,9.54
2023-04-02T05:51:04.472Z,24.580000000000002
2023-04-02T05:54:06.003Z,12.280000000000001
2023-04-02T05:57:09.622Z,8.459999999999999
2023-04-02T06:00:15.079Z,4.9799999999999995
2023-04-02T06:03:17.775Z,5.7
2023-04-02T06:06:19.160Z,7.719999999999999
2023-04-02T06:09:22.733Z,20.18
2023-04-02T06:12:27.267Z,17.52
2023-04-02T06:15:23.801Z,9.56
2023-04-02T06:18:24.274Z,12.76
2023-04-02T06:21:21.917Z,18.2
2023-04-02T06:24:24.557Z,13.88
2023-04-02T06:27:26.028Z,8.44
2023-04-02T06:30:26.578Z,7.339999999999999
2023-04-02T06:33:23.124Z,8.239999999999998
2023-04-02T06:36:23.711Z,9.8
2023-04-02T06:39:22.255Z,13.4
2023-04-02T06:42:21.801Z,14.62
2023-04-02T06:45:21.307Z,11.68
2023-04-02T06:48:20.881Z,18.6
2023-04-02T06:51:21.403Z,12.58
2023-04-02T06:54:19.980Z,7.780000000000001
2023-04-02T06:57:17.537Z,8.18
2023-04-02T07:00:22.075Z,6.8
2023-04-02T07:03:22.581Z,7.419999999999999
2023-04-02T07:06:21.192Z,6.4399999999999995
2023-04-02T07:09:16.727Z,15.26
2023-04-02T07:12:13.269Z,4.779999999999999
2023-04-02T07:15:10.805Z,14.580000000000002
2023-04-02T07:18:06.439Z,21.560000000000002
2023-04-02T07:21:03.970Z,7.94
2023-04-02T07:23:59.527Z,9.4
2023-04-02T07:26:57.102Z,8.52
2023-04-02T07:29:52.672Z,7.8199999999999985
2023-04-02T07:32:49.262Z,9.540000000000001
2023-04-02T07:35:46.781Z,10.88
2023-04-02T07:38:42.299Z,14.059999999999999
2023-04-02T07:41:43.850Z,14.62
2023-04-02T07:44:39.452Z,13.780000000000001
2023-04-02T07:47:35.438Z,18.139999999999997
2023-04-02T07:50:30.592Z,14.24
2023-04-02T07:53:29.284Z,4
2023-04-02T07:56:25.657Z,3.9200000000000004
2023-04-02T07:59:21.252Z,4.24
2023-04-02T08:02:19.838Z,3.8
2023-04-02T08:05:15.354Z,3.08
2023-04-02T08:08:10.885Z,3.46
2023-04-02T08:11:07.462Z,2.88
2023-04-02T08:14:03.025Z,2.5799999999999996
2023-04-02T08:16:59.704Z,2.88
2023-04-02T08:19:56.182Z,3.3
2023-04-02T08:22:51.697Z,4.46
2023-04-02T08:25:47.235Z,2.7800000000000002
2023-04-02T08:28:42.828Z,6.26
2023-04-02T08:31:40.379Z,3.66
2023-04-02T08:34:35.958Z,3.62
2023-04-02T08:40:42.026Z,24.4
2023-04-02T08:43:56.528Z,19.52
2023-04-02T08:47:01.091Z,33.239999999999995
2023-04-02T08:50:02.597Z,15.02
2023-04-02T08:53:03.201Z,11.44
2023-04-02T08:56:08.708Z,5.04
2023-04-02T08:59:17.259Z,13.919999999999998
2023-04-02T09:02:25.823Z,9.459999999999999
2023-04-02T09:05:26.278Z,5.8
2023-04-02T09:08:24.834Z,5.0200000000000005
2023-04-02T09:11:24.394Z,8.3
2023-04-02T09:14:26.964Z,11.319999999999999
2023-04-02T09:17:25.571Z,17.139999999999997
2023-04-02T09:20:26.065Z,33.739999999999995
2023-04-02T09:23:24.622Z,8.540000000000001
2023-04-02T09:26:25.141Z,4.9399999999999995
2023-04-02T09:29:28.697Z,5.159999999999999
2023-04-02T09:32:37.298Z,4.0200000000000005
2023-04-02T09:35:44.873Z,3.56
2023-04-02T09:38:51.318Z,6.82
2023-04-02T09:42:02.914Z,9.18
2023-04-02T09:45:00.367Z,5.94
2023-04-02T09:47:58.964Z,7.220000000000001
2023-04-02T09:51:02.476Z,5.26
2023-04-02T09:54:06.019Z,10.58
2023-04-02T09:57:04.627Z,11.26
2023-04-02T10:00:14.598Z,5.2
2023-04-02T10:03:17.655Z,7.380000000000001
2023-04-02T10:06:16.194Z,5.26
2023-04-02T10:09:20.746Z,5.680000000000001
2023-04-02T10:12:16.284Z,3.44
2023-04-02T10:15:16.863Z,5.54
2023-04-02T10:18:15.497Z,6.24
2023-04-02T10:21:16.039Z,3.5799999999999996
2023-04-02T10:24:13.500Z,6.119999999999999
2023-04-02T10:27:23.014Z,4.92
2023-04-02T10:30:28.604Z,3.4800000000000004
2023-04-02T10:33:32.116Z,5.06
2023-04-02T10:36:38.668Z,6.04
2023-04-02T10:39:41.165Z,3.94
2023-04-02T10:42:45.677Z,3.8
2023-04-02T10:49:06.842Z,3.34
2023-04-02T10:52:13.292Z,5.159999999999999
2023-04-02T10:55:16.856Z,3.7400000000000007
2023-04-02T10:58:19.422Z,3.0599999999999996
2023-04-02T11:01:20.951Z,2.8600000000000003
2023-04-02T11:04:21.452Z,3.0199999999999996
2023-04-02T11:07:21.027Z,3.5799999999999996
2023-04-02T11:10:19.556Z,4.159999999999999
2023-04-02T11:13:22.175Z,7.519999999999999
2023-04-02T11:16:18.715Z,9.4
2023-04-02T11:19:21.270Z,6.68
2023-04-02T11:22:20.807Z,5.799999999999999
2023-04-02T11:25:21.364Z,6.119999999999999
2023-04-02T11:28:26.884Z,8.459999999999999
2023-04-02T11:31:22.449Z,4.380000000000001
2023-04-02T11:34:28.967Z,5.78
2023-04-02T11:37:33.510Z,7.94
2023-04-02T11:40:41.089Z,5.98
2023-04-02T11:43:49.584Z,16.240000000000002
2023-04-02T11:46:51.274Z,17.38
2023-04-02T11:50:00.643Z,7.160000000000001
2023-04-02T11:53:00.207Z,4.779999999999999
2023-04-02T11:56:06.710Z,5.500000000000001
2023-04-02T11:59:14.236Z,11.78
2023-04-02T12:02:20.796Z,11.599999999999998
2023-04-02T12:05:27.375Z,9.059999999999999
2023-04-02T12:08:54.340Z,11.500000000000002
2023-04-02T12:11:42.449Z,7.58
2023-04-02T12:14:46.015Z,12.48
2023-04-02T12:17:50.504Z,6.4
2023-04-02T12:20:53.035Z,2.76
2023-04-02T12:23:53.580Z,4.9
2023-04-02T12:27:15.073Z,3.28
2023-04-02T12:30:12.591Z,3.46
2023-04-02T12:33:13.203Z,4.32
2023-04-02T12:36:13.745Z,3.9599999999999995
2023-04-02T12:39:17.254Z,6.720000000000001
2023-04-02T12:42:17.821Z,3.9
2023-04-02T12:45:23.329Z,4.800000000000001
2023-04-02T12:51:28.424Z,4.76
2023-04-02T12:54:24.235Z,3.5
2023-04-02T12:57:23.644Z,4.52
2023-04-02T13:00:29.042Z,5.2
2023-04-02T13:03:29.661Z,4.040000000000001
2023-04-02T13:06:27.171Z,4.659999999999999
2023-04-02T13:09:28.748Z,5.8
2023-04-02T13:12:26.300Z,10.24
2023-04-02T13:15:28.187Z,4.86
2023-04-02T13:18:30.399Z,9.22
2023-04-02T13:21:30.971Z,2.1
2023-04-02T13:24:27.499Z,1.7
2023-04-02T13:27:26.046Z,3.84
2023-04-02T13:30:24.622Z,2.54
2023-04-02T13:33:20.122Z,3.5599999999999996
2023-04-02T13:36:15.793Z,10.440000000000001
2023-04-02T13:39:12.293Z,9.879999999999999
2023-04-02T13:42:11.837Z,4.4799999999999995
2023-04-02T13:45:16.361Z,2.2800000000000002
2023-04-02T13:48:13.921Z,4.959999999999999
2023-04-02T13:51:12.252Z,19.16
2023-04-02T13:54:14.067Z,17.88
2023-04-02T13:57:11.655Z,5.66
2023-04-02T14:00:08.156Z,5.9399999999999995
2023-04-02T14:03:06.782Z,6.16
2023-04-02T14:06:11.225Z,5.48
2023-04-02T14:09:18.752Z,2.7
2023-04-02T14:12:22.333Z,5.9799999999999995
2023-04-02T14:15:29.821Z,1.7600000000000002
2023-04-02T14:18:41.345Z,4.739999999999999
2023-04-02T14:21:49.949Z,4.999999999999999
2023-04-02T14:24:53.464Z,6.5600000000000005
2023-04-02T14:28:00.960Z,5.340000000000001
2023-04-02T14:31:02.581Z,3.6399999999999997
2023-04-02T14:34:09.094Z,4.619999999999999
2023-04-02T14:37:17.568Z,7.159999999999999
2023-04-02T14:40:22.142Z,3.8200000000000003
2023-04-02T14:43:24.732Z,7.659999999999999
2023-04-02T14:46:31.229Z,8.46
2023-04-02T14:49:31.757Z,9.3
2023-04-02T14:52:33.287Z,37.54
2023-04-02T14:55:37.844Z,12.739999999999998
2023-04-02T14:58:37.337Z,27.2
2023-04-02T15:01:37.975Z,96.22
2023-04-02T15:07:49.995Z,36.78000000000001
2023-04-02T15:10:55.569Z,7.220000000000001
2023-04-02T15:14:01.057Z,25.919999999999998
2023-04-02T15:16:58.639Z,88.52000000000001
2023-04-02T15:19:59.280Z,17.28
2023-04-02T15:23:04.719Z,25.1
2023-04-02T15:26:12.221Z,29.22
2023-04-02T15:29:28.200Z,18.979999999999997
2023-04-02T15:32:24.305Z,12.459999999999999
2023-04-02T15:35:26.852Z,12.22
2023-04-02T15:38:33.392Z,7.18
2023-04-02T15:41:36.893Z,8.3
2023-04-02T15:44:42.487Z,17.82
2023-04-02T15:47:46.058Z,15.219999999999999
2023-04-02T15:50:54.596Z,13.98
2023-04-02T15:54:03.052Z,14.180000000000001
2023-04-02T15:57:11.726Z,15.020000000000001
2023-04-02T16:00:23.106Z,11.219999999999999
2023-04-02T16:03:38.698Z,17.28
2023-04-02T16:06:56.108Z,11.2
2023-04-02T16:10:00.686Z,14.779999999999998
2023-04-02T16:12:57.238Z,19.9
2023-04-02T16:16:01.788Z,15.780000000000001
2023-04-02T16:19:16.137Z,34.12
2023-04-02T16:22:14.871Z,32.82000000000001
2023-04-02T16:25:16.477Z,85.66
2023-04-02T16:28:18.928Z,73.82000000000001
2023-04-02T16:31:24.545Z,37.64
2023-04-02T16:34:33.998Z,43.38000000000001
2023-04-02T16:37:39.537Z,24.88
2023-04-02T16:40:45.135Z,25.359999999999996
2023-04-02T16:43:53.597Z,36.46
2023-04-02T16:46:58.189Z,15.839999999999998
2023-04-02T16:50:01.691Z,35.760000000000005
2023-04-02T16:53:10.179Z,21.779999999999998
2023-04-02T16:56:20.745Z,24.119999999999997
2023-04-02T16:59:27.272Z,29.639999999999997
2023-04-02T17:02:36.899Z,26.119999999999997
2023-04-02T17:05:44.435Z,22.28
2023-04-02T17:08:49.849Z,22.22
2023-04-02T17:11:53.641Z,25.639999999999997
2023-04-02T17:14:56.919Z,24.12
2023-04-02T17:18:00.601Z,22.92
2023-04-02T17:21:08.118Z,50.08
2023-04-02T17:24:17.547Z,45.760000000000005
2023-04-02T17:27:25.065Z,33.02
2023-04-02T17:30:35.808Z,10.66
2023-04-02T17:33:45.139Z,7.539999999999999
2023-04-02T17:36:58.623Z,5.8
2023-04-02T17:40:17.090Z,9.459999999999999
2023-04-02T17:43:25.633Z,9.580000000000002
2023-04-02T17:46:34.236Z,45.32
2023-04-02T17:48:36.903Z,57.06
2023-04-02T17:51:46.388Z,62.58
2023-04-02T17:54:57.938Z,82.04
2023-04-02T17:58:18.420Z,117.56000000000002
2023-04-02T18:01:25.048Z,35.64
2023-04-02T18:04:38.486Z,24.04
2023-04-02T18:07:46.020Z,5.08
2023-04-02T18:10:54.786Z,4.96
2023-04-02T18:14:11.071Z,4.959999999999999
2023-04-02T18:17:23.644Z,5.859999999999999
2023-04-02T18:20:31.147Z,7.94
2023-04-02T18:23:42.621Z,11.24
2023-04-02T18:26:49.200Z,10
2023-04-02T18:30:04.674Z,7.739999999999999
2023-04-02T18:33:22.234Z,7.42
2023-04-02T18:36:33.714Z,9.2
2023-04-02T18:39:48.906Z,11.460000000000003
2023-04-02T18:43:06.584Z,8.179999999999998
2023-04-02T18:46:13.289Z,6.08
2023-04-02T18:49:27.823Z,4.82
2023-04-02T18:52:30.318Z,5.18
2023-04-02T18:55:37.860Z,3.3800000000000003
2023-04-02T18:58:50.389Z,4.14
2023-04-02T19:01:57.854Z,8.279999999999998
2023-04-02T19:05:02.437Z,12.74
2023-04-02T19:08:10.976Z,13.64
2023-04-02T19:11:20.239Z,38.67999999999999
2023-04-02T19:14:31.035Z,17.42
2023-04-02T19:17:37.578Z,10.7
2023-04-02T19:20:50.074Z,9.34
2023-04-02T19:24:11.963Z,10.7
2023-04-02T19:27:17.116Z,7.18
2023-04-02T19:30:28.655Z,3.5199999999999996
2023-04-02T19:33:45.759Z,3.6
2023-04-02T19:37:06.523Z,6.12
2023-04-02T19:40:21.362Z,14.86
2023-04-02T19:43:26.671Z,10.16
2023-04-02T19:46:29.828Z,9.6
2023-04-02T19:49:42.807Z,8.3
2023-04-02T19:52:52.853Z,7.360000000000001
2023-04-02T19:56:11.646Z,7.459999999999999
2023-04-02T19:59:21.302Z,5.26
2023-04-02T20:02:24.686Z,6.340000000000001
2023-04-02T20:05:26.399Z,8.2
2023-04-02T20:08:35.680Z,10.379999999999999
2023-04-02T20:11:38.467Z,12.72
2023-04-02T20:14:34.047Z,9.86
2023-04-02T20:17:34.604Z,7.080000000000001
2023-04-02T20:20:40.156Z,8.419999999999998
2023-04-02T20:23:36.662Z,7.5
2023-04-02T20:26:37.216Z,10.36
2023-04-02T20:29:33.803Z,10.059999999999999
2023-04-02T20:32:38.478Z,12.14
2023-04-02T20:35:49.896Z,11.34
2023-04-02T20:38:45.436Z,10.959999999999999
2023-04-02T20:42:02.918Z,7.159999999999999
2023-04-02T20:45:16.116Z,8.52
2023-04-02T20:48:21.973Z,8.46
2023-04-02T20:51:30.909Z,8.16
2023-04-02T20:54:36.013Z,3.8600000000000003
2023-04-02T20:57:42.545Z,3.6399999999999997
2023-04-02T21:00:49.492Z,3.5799999999999996
2023-04-02T21:03:58.052Z,6.3
2023-04-02T21:07:09.192Z,5.68
2023-04-02T21:10:09.689Z,3.5799999999999996
2023-04-02T21:13:23.446Z,3.2399999999999998
2023-04-02T21:16:24.766Z,3.78
2023-04-02T21:19:36.870Z,3.2599999999999993
2023-04-02T21:22:36.823Z,1.94
2023-04-02T21:25:47.122Z,3.7600000000000002
2023-04-02T21:28:47.882Z,3.3200000000000003
2023-04-02T21:31:44.489Z,2.88
2023-04-02T21:34:41.042Z,2.48
2023-04-02T21:37:37.991Z,2.18
2023-04-02T21:40:40.107Z,2.9
2023-04-02T21:43:45.653Z,3.04
2023-04-02T21:46:47.604Z,3.4199999999999995
2023-04-02T21:49:50.746Z,2.4
2023-04-02T21:52:46.311Z,4.2
2023-04-02T21:55:46.833Z,3.8
2023-04-02T21:58:48.404Z,3.7400000000000007
2023-04-02T22:01:55.052Z,5.02
2023-04-02T22:05:06.427Z,2.66
2023-04-02T22:08:07.058Z,3.5199999999999996
2023-04-02T22:11:09.543Z,4.119999999999999
2023-04-02T22:14:06.105Z,3.2599999999999993
2023-04-02T22:17:06.686Z,3.22
2023-04-02T22:20:16.306Z,3
2023-04-02T22:23:25.681Z,3.8
2023-04-02T22:26:33.238Z,2.4
2023-04-02T22:29:34.621Z,3.6
2023-04-02T22:32:36.415Z,4.220000000000001
2023-04-02T22:35:31.923Z,3.5199999999999996
2023-04-02T22:38:36.430Z,2.44
2023-04-02T22:41:36.988Z,3.3600000000000003
2023-04-02T22:44:36.501Z,4.119999999999999
2023-04-02T22:47:37.096Z,2.5200000000000005
2023-04-02T22:50:42.249Z,2.82
2023-04-02T22:53:38.168Z,2.84
2023-04-02T22:56:48.692Z,2.6399999999999997
2023-04-02T22:59:44.234Z,4.0200000000000005
2023-04-02T23:02:39.864Z,2.6
2023-04-02T23:05:36.381Z,2.8
2023-04-02T23:08:42.948Z,3.8800000000000003
2023-04-02T23:11:58.332Z,2.8
2023-04-02T23:15:01.990Z,3.7399999999999998
2023-04-02T23:18:02.506Z,2.9799999999999995
2023-04-02T23:20:58.127Z,1.8599999999999999
2023-04-02T23:23:54.648Z,2.3400000000000003
2023-04-02T23:26:51.185Z,4.26
2023-04-02T23:29:46.758Z,2.54
2023-04-02T23:32:42.377Z,3.3
2023-04-02T23:35:37.917Z,3.28
2023-04-02T23:38:35.425Z,3.38
2023-04-02T23:41:35.031Z,3.3599999999999994
2023-04-02T23:44:32.598Z,4.2
2023-04-02T23:47:28.157Z,4.32
2023-04-02T23:50:23.633Z,4.8
2023-04-02T23:53:19.223Z,3.7
2023-04-02T23:56:14.785Z,3.5
2023-04-02T23:59:10.380Z,3.2
